Terminal Aerodrome Forecast
Issued by NWS

Home | Current Version | Previous Version | Text Only | Print | Product List | Glossary Off
Versions: 1 2 3 4 5 6 7 8 9 10 11 12 13 14 15 16 17 18 19 20 21 22 23 24 25 26 27

908
FTUS43 KABR 212040 AAA
TAFATY
TAF AMD
KATY 212040Z 2121/2218 31017KT P6SM FEW027 BKN040 OVC050
     FM220200 28006KT P6SM BKN100
     FM221100 29005KT P6SM SCT200
     FM221500 35007KT P6SM BKN120=

USA.gov is the U.S. government's official web portal to all federal, state and local government web resources and services.